Main page
METAR-TAF:

METAR-TAF

Airports :

Marshfield Municipal Airport

Marshfield, Massachusetts, United States

latitude: 42-05-54N, longitude: 070-40-20W, elevation: 10 ft

Current weather observation

The report was made 27 minutes ago, at 04:15 UTC
Calm wind
Temperature 34°F
Humidity 69%
Pressure 30.33 in. Hg
Visibility: 10 miles
Clear sky

METAR: KGHG 240415Z AUTO 00000KT 10SM CLR 01/M04 A3033 RMK AO2

Time: 23:42 (04:42 UTC)


TAF: missing

Weather observations and forecasts of more than 4000 airports (METAR and TAF reports).

The available stations are represented by yellow and red dots on the map.

Hover mouse over dot to see the name of the station.

Then click to see weather observations and forecasts.

To change the map : click on the green buttons with a black cross to zoom in, on the green button with a dash to zoom out, or on the green arrows for adjacent maps.


METAR-TAF: